Time;durP1;ratioP1;P1;durP2;ratioP2;P2;SDS_P1;SDS_P2;PMS_P1;PMS_P2;Temp;Humidity;BMP_temperature;BMP_pressure;BME280_temperature;BME280_humidity;BME280_pressure;Samples;Min_cycle;Max_cycle;Signal;HPM_P1;HPM_P2
2021/05/01 00:02:34;;;;;;;1999.90;999.90;;;;;;;7.23;100.00;-18102.69;4902623;29;20206;-29
2021/05/01 00:05:21;;;;;;;1999.90;999.90;;;;;;;7.28;100.00;-18103.75;4902477;29;20509;-30
2021/05/01 00:08:13;;;;;;;1999.90;999.90;;;;;;;7.21;100.00;-18102.00;4918853;29;20244;-29
2021/05/01 00:11:02;;;;;;;1999.90;999.90;;;;;;;7.26;100.00;-18103.47;4939841;29;20492;-29
2021/05/01 00:13:48;;;;;;;1999.90;999.90;;;;;;;7.16;100.00;-18100.81;4940058;29;20205;-29
2021/05/01 00:16:40;;;;;;;1999.90;999.90;;;;;;;7.33;100.00;-18105.09;4940092;29;20245;-29
2021/05/01 00:19:25;;;;;;;1999.90;999.90;;;;;;;7.48;100.00;-18109.09;4940958;29;20209;-30
2021/05/01 00:22:11;;;;;;;1999.90;999.90;;;;;;;7.50;100.00;-18109.66;4940166;29;20209;-29
2021/05/01 00:24:58;;;;;;;1999.90;999.90;;;;;;;7.46;100.00;-18108.56;4940505;29;20208;-30
2021/05/01 00:27:43;;;;;;;1999.90;999.90;;;;;;;7.75;100.00;-18116.34;4940242;29;20284;-29
2021/05/01 00:30:29;;;;;;;1999.90;999.90;;;;;;;7.74;100.00;-18115.94;4940050;29;20212;-29
2021/05/01 00:33:16;;;;;;;1999.90;999.90;;;;;;;7.25;100.00;-18103.22;4939684;29;20212;-29
2021/05/01 00:36:04;;;;;;;1999.90;999.90;;;;;;;7.18;100.00;-18101.34;4939673;29;20236;-29
2021/05/01 00:38:50;;;;;;;1999.90;999.90;;;;;;;7.31;100.00;-18104.69;4940054;29;20212;-29
2021/05/01 00:41:37;;;;;;;1999.90;999.90;;;;;;;7.57;100.00;-18111.66;4939755;29;20291;-29
2021/05/01 00:44:26;;;;;;;1999.90;999.90;;;;;;;7.66;100.00;-18113.94;4940099;29;20228;-29
2021/05/01 00:47:11;;;;;;;1999.90;999.90;;;;;;;7.50;100.00;-18109.78;4940557;29;20472;-29
2021/05/01 00:49:59;;;;;;;1999.90;999.90;;;;;;;7.47;100.00;-18108.97;4944655;29;20606;-29
2021/05/01 00:52:45;;;;;;;1999.90;999.90;;;;;;;7.51;100.00;-18109.91;4943966;29;20204;-29
2021/05/01 00:55:55;;;;;;;1999.90;999.90;;;;;;;7.44;100.00;-18108.16;4944066;29;20219;-29
2021/05/01 00:58:44;;;;;;;1999.90;999.90;;;;;;;7.48;100.00;-18109.09;4943603;29;20559;-30
2021/05/01 01:01:31;;;;;;;1999.90;999.90;;;;;;;7.46;100.00;-18108.56;4943774;29;20204;-29
2021/05/01 01:04:18;;;;;;;1999.90;999.90;;;;;;;7.26;100.00;-18103.47;4943123;29;20679;-29
2021/05/01 01:07:04;;;;;;;1999.90;999.90;;;;;;;7.32;100.00;-18104.81;4942811;29;20201;-29
2021/05/01 01:09:51;;;;;;;1999.90;999.90;;;;;;;7.41;100.00;-18107.38;4943304;29;20205;-29
2021/05/01 01:12:37;;;;;;;1999.90;999.90;;;;;;;7.75;100.00;-18116.22;4943289;29;20209;-29
2021/05/01 01:15:25;;;;;;;1999.90;999.90;;;;;;;7.91;100.00;-18120.63;4942988;29;20205;-30
2021/05/01 01:18:10;;;;;;;1999.90;999.90;;;;;;;7.83;100.00;-18118.50;4942836;29;20277;-29
2021/05/01 01:21:00;;;;;;;1999.90;999.90;;;;;;;7.72;100.00;-18115.53;4946019;29;20205;-30
2021/05/01 01:23:51;;;;;;;1999.90;999.90;;;;;;;7.81;100.00;-18117.81;4946888;29;20292;-29
2021/05/01 01:26:38;;;;;;;1999.90;999.90;;;;;;;7.91;100.00;-18120.50;4943280;29;20201;-29
2021/05/01 01:29:28;;;;;;;1999.90;999.90;;;;;;;8.19;100.00;-18128.00;4943002;29;20329;-29
2021/05/01 01:32:13;;;;;;;1999.90;999.90;;;;;;;8.00;100.00;-18122.78;4942307;29;20609;-29
2021/05/01 01:35:00;;;;;;;1999.90;999.90;;;;;;;7.77;100.00;-18116.75;4942445;29;20209;-29
2021/05/01 01:37:46;;;;;;;1999.90;999.90;;;;;;;7.82;100.00;-18118.22;4942357;29;20272;-29
2021/05/01 01:40:35;;;;;;;1999.90;999.90;;;;;;;7.90;100.00;-18120.38;4941527;29;20272;-29
2021/05/01 01:43:21;;;;;;;1999.90;999.90;;;;;;;7.96;100.00;-18121.84;4942265;29;20200;-29
2021/05/01 01:46:07;;;;;;;1999.90;999.90;;;;;;;7.85;100.00;-18119.03;4945881;29;20264;-29
2021/05/01 01:48:56;;;;;;;1999.90;999.90;;;;;;;8.09;100.00;-18125.19;4942348;29;20205;-29
2021/05/01 01:51:42;;;;;;;1999.90;999.90;;;;;;;8.11;100.00;-18125.72;4942538;29;20200;-29
2021/05/01 01:54:29;;;;;;;1999.90;999.90;;;;;;;8.37;100.00;-18132.69;4942563;29;20248;-30
2021/05/01 01:57:16;;;;;;;1999.90;999.90;;;;;;;8.13;100.00;-18126.41;4942716;29;20328;-29
2021/05/01 02:00:05;;;;;;;1999.90;999.90;;;;;;;8.37;100.00;-18132.69;4942878;29;20209;-29
2021/05/01 02:02:52;;;;;;;1999.90;999.90;;;;;;;8.37;100.00;-18132.56;4942096;29;20424;-29
2021/05/01 02:05:38;;;;;;;1999.90;999.90;;;;;;;8.55;100.00;-18137.53;4941360;29;20264;-29
2021/05/01 02:08:24;;;;;;;1999.90;999.90;;;;;;;8.56;100.00;-18137.66;4946046;29;20232;-29
2021/05/01 02:11:10;;;;;;;1999.90;999.90;;;;;;;8.56;100.00;-18137.66;4942616;29;20205;-29
2021/05/01 02:13:57;;;;;;;1999.90;999.90;;;;;;;8.61;100.00;-18139.13;4942098;29;20562;-29
2021/05/01 02:16:42;;;;;;;1999.90;999.90;;;;;;;8.63;100.00;-18139.66;4940729;29;20236;-29
2021/05/01 02:19:29;;;;;;;1999.90;999.90;;;;;;;8.51;100.00;-18136.44;4941602;29;20234;-29
2021/05/01 02:22:14;;;;;;;1999.90;999.90;;;;;;;8.59;100.00;-18138.47;4942072;29;20230;-30
2021/05/01 02:25:00;;;;;;;1999.90;999.90;;;;;;;8.68;100.00;-18140.72;4942078;29;20214;-29
2021/05/01 02:27:47;;;;;;;1999.90;999.90;;;;;;;8.72;100.00;-18141.94;4941888;29;20261;-29
2021/05/01 02:30:33;;;;;;;1999.90;999.90;;;;;;;8.69;100.00;-18141.00;4941624;29;20211;-29
2021/05/01 02:33:19;;;;;;;1999.90;999.90;;;;;;;8.74;100.00;-18142.34;4942157;29;20250;-29
2021/05/01 02:36:05;;;;;;;1999.90;999.90;;;;;;;8.73;100.00;-18142.19;4941891;29;20624;-30
2021/05/01 02:38:51;;;;;;;1999.90;999.90;;;;;;;8.26;100.00;-18129.75;4941987;29;20257;-29
2021/05/01 02:41:38;;;;;;;1999.90;999.90;;;;;;;7.99;100.00;-18122.50;4942283;29;20212;-29
2021/05/01 02:44:24;;;;;;;1999.90;999.90;;;;;;;7.99;100.00;-18122.50;4942134;29;20208;-29
2021/05/01 02:47:11;;;;;;;1999.90;999.90;;;;;;;8.11;100.00;-18125.84;4941606;29;20224;-29
2021/05/01 02:49:59;;;;;;;1999.90;999.90;;;;;;;7.92;100.00;-18120.78;4941176;29;20343;-29
2021/05/01 02:52:46;;;;;;;1999.90;999.90;;;;;;;7.77;100.00;-18116.75;4941636;29;20554;-29
2021/05/01 02:55:32;;;;;;;1999.90;999.90;;;;;;;7.99;100.00;-18122.50;4940934;29;20603;-29
2021/05/01 02:58:19;;;;;;;1999.90;999.90;;;;;;;8.56;100.00;-18137.66;4940413;29;20500;-29
2021/05/01 03:01:05;;;;;;;1999.90;999.90;;;;;;;8.88;100.00;-18146.09;4940932;29;20619;-29
2021/05/01 03:03:53;;;;;;;1999.90;999.90;;;;;;;9.07;100.00;-18151.03;4940587;29;20204;-29
2021/05/01 03:06:38;;;;;;;1999.90;999.90;;;;;;;9.19;100.00;-18154.25;4940761;29;20679;-29
2021/05/01 03:09:24;;;;;;;1999.90;999.90;;;;;;;8.64;100.00;-18139.78;4942726;29;20244;-29
2021/05/01 03:12:10;;;;;;;1999.90;999.90;;;;;;;8.98;100.00;-18148.91;4940911;29;20287;-29
2021/05/01 03:14:56;;;;;;;1999.90;999.90;;;;;;;8.84;100.00;-18145.00;4941661;29;20198;-29
2021/05/01 03:17:42;;;;;;;1999.90;999.90;;;;;;;8.97;100.00;-18148.50;4941235;29;20242;-29
2021/05/01 03:20:29;;;;;;;1999.90;999.90;;;;;;;8.73;100.00;-18142.06;4940565;29;20487;-29
2021/05/01 03:23:15;;;;;;;1999.90;999.90;;;;;;;8.94;100.00;-18147.81;4940333;29;20312;-29
2021/05/01 03:26:01;;;;;;;1999.90;999.90;;;;;;;8.99;100.00;-18149.03;4940102;29;20216;-29
2021/05/01 03:28:47;;;;;;;1999.90;999.90;;;;;;;8.88;100.00;-18146.22;4940531;29;20201;-29
2021/05/01 03:31:33;;;;;;;1999.90;999.90;;;;;;;8.96;100.00;-18148.22;4940665;29;20201;-29
2021/05/01 03:34:19;;;;;;;1999.90;999.90;;;;;;;9.09;100.00;-18151.56;4940404;29;20204;-29
2021/05/01 03:37:05;;;;;;;1999.90;999.90;;;;;;;9.01;100.00;-18149.56;4940315;29;20435;-29
2021/05/01 03:39:55;;;;;;;1999.90;999.90;;;;;;;8.83;100.00;-18144.75;4940415;29;20488;-29
2021/05/01 03:42:41;;;;;;;1999.90;999.90;;;;;;;8.83;100.00;-18144.88;4940641;29;20557;-30
2021/05/01 03:45:27;;;;;;;1999.90;999.90;;;;;;;8.83;100.00;-18144.88;4944145;29;20205;-30
2021/05/01 03:48:14;;;;;;;1999.90;999.90;;;;;;;8.78;100.00;-18143.41;4940663;29;20305;-30
2021/05/01 03:51:00;;;;;;;1999.90;999.90;;;;;;;8.69;100.00;-18141.13;4940130;29;20205;-30
2021/05/01 03:53:46;;;;;;;1999.90;999.90;;;;;;;8.59;100.00;-18138.47;4940232;29;20206;-29
2021/05/01 03:56:33;;;;;;;1999.90;999.90;;;;;;;8.64;100.00;-18139.78;4940037;29;20228;-29
2021/05/01 03:59:19;;;;;;;1999.90;999.90;;;;;;;8.25;100.00;-18129.47;4940256;29;20209;-30
2021/05/01 04:02:05;;;;;;;1999.90;999.90;;;;;;;8.49;100.00;-18135.78;4940291;29;20208;-29
2021/05/01 04:04:54;;;;;;;1999.90;999.90;;;;;;;8.67;100.00;-18140.47;4940638;29;20304;-30
2021/05/01 04:07:40;;;;;;;1999.90;999.90;;;;;;;8.76;100.00;-18142.88;4942410;29;20373;-29
2021/05/01 04:10:27;;;;;;;1999.90;999.90;;;;;;;8.84;100.00;-18145.00;4940461;29;20293;-30
2021/05/01 04:13:12;;;;;;;1999.90;999.90;;;;;;;8.71;100.00;-18141.53;4939490;29;20530;-29
2021/05/01 04:15:59;;;;;;;1999.90;999.90;;;;;;;8.52;100.00;-18136.72;4939698;29;20208;-30
2021/05/01 04:18:46;;;;;;;1999.90;999.90;;;;;;;8.73;100.00;-18142.19;4940135;29;20720;-29
2021/05/01 04:21:32;;;;;;;1999.90;999.90;;;;;;;8.77;100.00;-18143.28;4940515;29;20206;-30
2021/05/01 04:24:18;;;;;;;1999.90;999.90;;;;;;;8.72;100.00;-18141.81;4943665;29;20501;-30
2021/05/01 04:27:07;;;;;;;1999.90;999.90;;;;;;;8.86;100.00;-18145.56;4943838;29;20306;-30
2021/05/01 04:29:56;;;;;;;1999.90;999.90;;;;;;;8.78;100.00;-18143.41;4942930;29;20206;-30
2021/05/01 04:32:42;;;;;;;1999.90;999.90;;;;;;;8.91;100.00;-18147.03;4943714;29;20246;-30
2021/05/01 04:35:28;;;;;;;1999.90;999.90;;;;;;;8.55;100.00;-18137.38;4943886;29;20485;-29
2021/05/01 04:38:14;;;;;;;1999.90;999.90;;;;;;;8.68;100.00;-18140.72;4943694;29;20237;-30
2021/05/01 04:41:00;;;;;;;1999.90;999.90;;;;;;;8.49;100.00;-18135.91;4946238;29;20196;-29
2021/05/01 04:43:47;;;;;;;1999.90;999.90;;;;;;;8.58;100.00;-18138.31;4943405;29;20559;-30
2021/05/01 04:46:33;;;;;;;1999.90;999.90;;;;;;;8.88;100.00;-18146.22;4943354;29;20200;-30
2021/05/01 04:49:20;;;;;;;1999.90;999.90;;;;;;;8.95;100.00;-18147.97;4943583;29;20298;-29
2021/05/01 04:52:06;;;;;;;1999.90;999.90;;;;;;;8.95;100.00;-18148.09;4943442;29;20337;-30
2021/05/01 04:54:52;;;;;;;1999.90;999.90;;;;;;;9.07;100.00;-18151.16;4950748;29;20359;-30
2021/05/01 04:57:40;;;;;;;1999.90;999.90;;;;;;;8.90;100.00;-18146.63;4944471;29;20231;-29
2021/05/01 05:00:30;;;;;;;1999.90;999.90;;;;;;;9.07;100.00;-18151.03;4943769;29;20204;-30
2021/05/01 05:03:15;;;;;;;1999.90;999.90;;;;;;;9.05;100.00;-18150.50;4943250;29;20212;-30
2021/05/01 05:06:01;;;;;;;1999.90;999.90;;;;;;;8.98;100.00;-18148.75;4942899;29;20259;-30
2021/05/01 05:08:47;;;;;;;1999.90;999.90;;;;;;;8.99;100.00;-18149.16;4943355;29;20641;-30
2021/05/01 05:11:35;;;;;;;1999.90;999.90;;;;;;;8.90;100.00;-18146.63;4942992;29;20382;-30
2021/05/01 05:14:20;;;;;;;1999.90;999.90;;;;;;;9.06;100.00;-18150.91;4943190;29;20308;-30
2021/05/01 05:17:07;;;;;;;1999.90;999.90;;;;;;;9.03;100.00;-18149.97;4942548;29;20241;-29
2021/05/01 05:19:54;;;;;;;1999.90;999.90;;;;;;;8.95;100.00;-18148.09;4943131;29;20494;-30
2021/05/01 05:22:41;;;;;;;1999.90;999.90;;;;;;;8.92;100.00;-18147.16;4943281;29;20309;-29
2021/05/01 05:25:27;;;;;;;1999.90;999.90;;;;;;;8.85;100.00;-18145.28;4942140;29;20201;-30
2021/05/01 05:28:16;;;;;;;1999.90;999.90;;;;;;;9.03;100.00;-18149.97;4942525;29;20204;-29
2021/05/01 05:31:01;;;;;;;1999.90;999.90;;;;;;;8.94;100.00;-18147.69;4944876;29;20200;-29
2021/05/01 05:33:48;;;;;;;1999.90;999.90;;;;;;;8.90;100.00;-18146.75;4944257;29;20204;-29
2021/05/01 05:36:35;;;;;;;1999.90;999.90;;;;;;;8.90;100.00;-18146.63;4942546;29;20239;-29
2021/05/01 05:39:23;;;;;;;1999.90;999.90;;;;;;;8.96;100.00;-18148.38;4942673;29;20212;-29
2021/05/01 05:42:10;;;;;;;1999.90;999.90;;;;;;;9.05;100.00;-18150.63;4942119;29;20356;-29
2021/05/01 05:44:56;;;;;;;1999.90;999.90;;;;;;;9.10;100.00;-18151.97;4942475;29;20690;-30
2021/05/01 05:47:44;;;;;;;1999.90;999.90;;;;;;;9.10;100.00;-18151.84;4942399;29;20196;-30
2021/05/01 05:50:31;;;;;;;1999.90;999.90;;;;;;;9.08;100.00;-18151.31;4941904;29;20268;-29
2021/05/01 05:53:17;;;;;;;1999.90;999.90;;;;;;;9.05;100.00;-18150.63;4941923;29;20349;-30
2021/05/01 05:56:03;;;;;;;1999.90;999.90;;;;;;;9.41;100.00;-18160.00;4943832;29;20204;-30
2021/05/01 05:58:50;;;;;;;1999.90;999.90;;;;;;;9.28;100.00;-18156.78;4942963;29;20425;-30
2021/05/01 06:01:39;;;;;;;1999.90;999.90;;;;;;;8.82;100.00;-18144.47;4942578;29;20253;-30
2021/05/01 06:04:29;;;;;;;1999.90;999.90;;;;;;;8.84;100.00;-18145.16;4942078;29;20205;-29
2021/05/01 06:07:22;;;;;;;1999.90;999.90;;;;;;;8.93;100.00;-18147.44;4942192;29;20498;-29
2021/05/01 06:10:10;;;;;;;1999.90;999.90;;;;;;;9.19;100.00;-18154.25;4941758;29;20201;-29
2021/05/01 06:12:56;;;;;;;1999.90;999.90;;;;;;;9.25;100.00;-18156.00;4942125;29;20200;-29
2021/05/01 06:15:45;;;;;;;1999.90;999.90;;;;;;;9.63;100.00;-18166.03;4941664;29;20200;-29
2021/05/01 06:18:35;;;;;;;1999.90;999.90;;;;;;;9.55;100.00;-18163.75;4941633;29;20644;-30
2021/05/01 06:21:21;;;;;;;1999.90;999.90;;;;;;;10.12;100.00;-18178.88;4942194;29;20248;-29
2021/05/01 06:24:09;;;;;;;1999.90;999.90;;;;;;;10.14;100.00;-18179.28;4941840;29;20288;-30
2021/05/01 06:26:56;;;;;;;1999.90;999.90;;;;;;;10.82;100.00;-18197.31;4922834;29;20316;-30
2021/05/01 06:29:43;;;;;;;1999.90;999.90;;;;;;;10.32;100.00;-18184.22;4922913;29;20250;-30
2021/05/01 06:32:29;;;;;;;1999.90;999.90;;;;;;;10.21;100.00;-18181.16;4922018;29;20296;-30
2021/05/01 06:35:17;;;;;;;1999.90;999.90;;;;;;;10.73;100.00;-18194.78;4925958;29;20205;-29
2021/05/01 06:38:03;;;;;;;1999.90;999.90;;;;;;;10.41;100.00;-18186.38;4922288;29;20351;-29
2021/05/01 06:40:56;;;;;;;1999.90;999.90;;;;;;;10.28;100.00;-18183.16;4921779;29;20206;-29
2021/05/01 06:44:02;;;;;;;1999.90;999.90;;;;;;;10.03;100.00;-18176.59;4923761;29;20201;-29
2021/05/01 06:46:49;;;;;;;1999.90;999.90;;;;;;;10.00;100.00;-18175.66;4921697;29;20316;-30
2021/05/01 06:49:44;;;;;;;1999.90;999.90;;;;;;;10.18;100.00;-18180.34;4922118;29;20284;-30
2021/05/01 06:52:30;;;;;;;1999.90;999.90;;;;;;;9.95;100.00;-18174.47;4921530;29;20629;-29
2021/05/01 06:55:19;;;;;;;1999.90;999.90;;;;;;;10.20;100.00;-18180.88;4921553;29;20607;-30
2021/05/01 06:58:06;;;;;;;1999.90;999.90;;;;;;;9.89;100.00;-18172.72;4921621;29;20643;-30
2021/05/01 07:00:51;;;;;;;1999.90;999.90;;;;;;;9.92;100.00;-18173.53;4921539;29;20208;-29
2021/05/01 07:03:43;;;;;;;1999.90;999.90;;;;;;;10.16;100.00;-18179.81;4921585;29;20209;-29
2021/05/01 07:06:31;;;;;;;1999.90;999.90;;;;;;;9.84;100.00;-18171.38;4922008;29;20206;-29
2021/05/01 07:09:16;;;;;;;1999.90;999.90;;;;;;;9.95;100.00;-18174.31;4921914;29;20252;-29
2021/05/01 07:12:03;;;;;;;1999.90;999.90;;;;;;;9.84;100.00;-18171.50;4924216;29;20229;-30
2021/05/01 07:14:52;;;;;;;1999.90;999.90;;;;;;;10.29;100.00;-18183.28;4923933;29;20209;-30
2021/05/01 07:17:38;;;;;;;1999.90;999.90;;;;;;;10.88;100.00;-18198.78;4922595;29;20240;-30
2021/05/01 07:20:26;;;;;;;1999.90;999.90;;;;;;;11.31;100.00;-18210.28;4921801;29;20209;-29
2021/05/01 07:23:12;;;;;;;1999.90;999.90;;;;;;;11.82;100.00;-18223.53;4922024;29;20201;-30
2021/05/01 07:26:00;;;;;;;1999.90;999.90;;;;;;;11.25;100.00;-18208.69;4921925;29;20789;-29
2021/05/01 07:28:50;;;;;;;1999.90;999.90;;;;;;;11.96;100.00;-18227.41;4938270;29;20265;-30
2021/05/01 07:31:40;;;;;;;1999.90;999.90;;;;;;;12.93;100.00;-18252.75;4940616;29;20328;-29
2021/05/01 07:34:29;;;;;;;1999.90;999.90;;;;;;;11.29;100.00;-18209.63;4941228;29;20210;-30
2021/05/01 07:37:19;;;;;;;1999.90;999.90;;;;;;;10.88;100.00;-18198.78;4954770;29;20290;-30
2021/05/01 07:40:07;;;;;;;1999.90;999.90;;;;;;;11.72;100.00;-18221.13;4955305;29;20218;-30
2021/05/01 07:42:55;;;;;;;1999.90;999.90;;;;;;;12.18;100.00;-18233.13;4941547;29;20201;-30
2021/05/01 07:45:41;;;;;;;1999.90;999.90;;;;;;;11.32;100.00;-18210.56;4942894;29;20211;-29
2021/05/01 07:48:32;;;;;;;1999.90;999.90;;;;;;;11.02;100.00;-18202.53;4942878;29;20303;-30
2021/05/01 07:51:19;;;;;;;1999.90;999.90;;;;;;;11.88;100.00;-18225.13;4945642;29;20210;-28
2021/05/01 07:54:21;;;;;;;1999.90;999.90;;;;;;;12.97;100.00;-18253.81;4943148;29;20215;-29
2021/05/01 07:57:12;;;;;;;1999.90;999.90;;;;;;;11.82;100.00;-18223.53;4940756;29;20231;-29
2021/05/01 08:00:00;;;;;;;1999.90;999.90;;;;;;;12.16;100.00;-18232.59;4943371;29;20249;-29
2021/05/01 08:02:49;;;;;;;1999.90;999.90;;;;;;;12.12;100.00;-18231.41;4942554;29;20208;-29
2021/05/01 08:05:35;;;;;;;1999.90;999.90;;;;;;;12.22;100.00;-18234.06;4940630;29;20198;-29
2021/05/01 08:08:21;;;;;;;1999.90;999.90;;;;;;;11.61;100.00;-18218.03;4940249;29;20594;-29
2021/05/01 08:11:07;;;;;;;1999.90;999.90;;;;;;;12.32;100.00;-18236.75;4941591;29;20210;-29
2021/05/01 08:13:53;;;;;;;1999.90;999.90;;;;;;;12.79;100.00;-18249.16;4944464;29;20206;-30
2021/05/01 08:16:40;;;;;;;1999.90;999.90;;;;;;;12.17;100.00;-18232.75;4946238;29;20669;-29
2021/05/01 08:19:26;;;;;;;1999.90;999.90;;;;;;;12.32;100.00;-18236.75;4944008;29;20310;-29
2021/05/01 08:22:13;;;;;;;1999.90;999.90;;;;;;;13.83;100.00;-18276.38;4940868;29;20210;-29
2021/05/01 08:25:02;;;;;;;1999.90;999.90;;;;;;;11.89;100.00;-18225.53;4943104;29;20256;-29
2021/05/01 08:27:50;;;;;;;1999.90;999.90;;;;;;;10.68;100.00;-18193.59;4940159;29;20292;-29
2021/05/01 08:30:36;;;;;;;1999.90;999.90;;;;;;;11.15;100.00;-18206.00;4940045;29;20243;-29
2021/05/01 08:33:22;;;;;;;1999.90;999.90;;;;;;;12.18;100.00;-18233.00;4940089;29;20207;-29
2021/05/01 08:36:15;;;;;;;1999.90;999.90;;;;;;;13.90;100.00;-18278.38;4939793;29;20196;-29
2021/05/01 08:39:02;;;;;;;1999.90;999.90;;;;;;;15.67;86.52;-18324.75;4940604;29;20204;-29
2021/05/01 08:41:48;;;;;;;1999.90;999.90;;;;;;;16.86;77.88;-18356.00;4940140;29;20848;-29
2021/05/01 08:44:34;;;;;;;1999.90;999.90;;;;;;;13.36;93.20;-18264.25;4940266;29;20205;-29
2021/05/01 08:47:20;;;;;;;1999.90;999.90;;;;;;;12.42;100.00;-18239.41;4939709;29;20750;-29
2021/05/01 08:50:09;;;;;;;1999.90;999.90;;;;;;;11.86;100.00;-18224.72;4940179;29;20579;-29
2021/05/01 08:52:57;;;;;;;1999.90;999.90;;;;;;;11.89;100.00;-18225.53;4941547;29;20209;-29
2021/05/01 08:55:44;;;;;;;1999.90;999.90;;;;;;;11.89;100.00;-18225.38;4942628;29;20283;-29
2021/05/01 08:58:30;;;;;;;1999.90;999.90;;;;;;;11.50;100.00;-18215.09;4939204;29;20292;-29
2021/05/01 09:01:16;;;;;;;1999.90;999.90;;;;;;;12.71;100.00;-18247.03;4939124;29;20204;-29
2021/05/01 09:04:05;;;;;;;1999.90;999.90;;;;;;;11.51;100.00;-18215.50;4939456;29;20241;-29
2021/05/01 09:06:51;;;;;;;1999.90;999.90;;;;;;;11.29;100.00;-18209.75;4939560;29;20294;-29
2021/05/01 09:10:02;;;;;;;1999.90;999.90;;;;;;;11.38;100.00;-18212.03;4903884;29;20285;-29
2021/05/01 09:12:51;;;;;;;1999.90;999.90;;;;;;;11.13;100.00;-18205.47;4905242;29;20504;-31
2021/05/01 09:15:54;;;;;;;1999.90;999.90;;;;;;;12.14;100.00;-18231.94;4904901;29;20259;-30
2021/05/01 09:18:50;;;;;;;1999.90;999.90;;;;;;;12.07;100.00;-18230.19;4905503;29;20232;-29
2021/05/01 09:21:35;;;;;;;1999.90;999.90;;;;;;;14.59;96.17;-18296.50;4907408;29;20298;-29
2021/05/01 09:24:22;;;;;;;1999.90;999.90;;;;;;;15.73;80.24;-18326.47;4905713;29;20714;-29
2021/05/01 09:27:15;;;;;;;1999.90;999.90;;;;;;;13.41;89.74;-18265.56;4905231;29;20608;-29
2021/05/01 09:30:14;;;;;;;1999.90;999.90;;;;;;;14.22;87.48;-18286.63;4905005;29;20254;-29
2021/05/01 09:33:23;;;;;;;1999.90;999.90;;;;;;;12.98;93.96;-18254.09;4905075;29;20601;-29
2021/05/01 09:36:13;;;;;;;1999.90;999.90;;;;;;;11.68;100.00;-18219.91;4904720;29;20560;-29
2021/05/01 09:39:08;;;;;;;1999.90;999.90;;;;;;;12.10;98.98;-18230.88;4898534;29;20254;-29
2021/05/01 09:42:12;;;;;;;1999.90;999.90;;;;;;;13.68;86.01;-18272.63;4897866;29;20213;-29
2021/05/01 09:45:11;;;;;;;1999.90;999.90;;;;;;;14.29;81.37;-18288.50;4905496;29;20449;-29
2021/05/01 09:48:01;;;;;;;1999.90;999.90;;;;;;;16.25;78.41;-18339.91;4906070;29;20604;-29
2021/05/01 09:50:47;;;;;;;1999.90;999.90;;;;;;;15.12;77.04;-18310.34;4904657;29;20209;-29
2021/05/01 09:53:34;;;;;;;1999.90;999.90;;;;;;;14.02;84.16;-18281.44;4904500;29;20624;-30
2021/05/01 09:56:23;;;;;;;1999.90;999.90;;;;;;;13.43;87.25;-18266.09;4886187;29;20235;-29
2021/05/01 09:59:11;;;;;;;1999.90;999.90;;;;;;;13.19;89.12;-18259.69;4885659;29;20515;-29
2021/05/01 10:02:03;;;;;;;1999.90;999.90;;;;;;;12.85;93.22;-18250.75;4885630;29;20267;-29
2021/05/01 10:05:02;;;;;;;1999.90;999.90;;;;;;;14.64;80.61;-18297.84;4886806;29;20203;-29
2021/05/01 10:07:54;;;;;;;1999.90;999.90;;;;;;;15.55;77.64;-18321.53;4899472;29;20305;-29
2021/05/01 10:10:41;;;;;;;1999.90;999.90;;;;;;;14.75;70.44;-18300.75;4932482;29;20209;-30
2021/05/01 10:13:27;;;;;;;1999.90;999.90;;;;;;;13.13;75.37;-18257.97;4926049;29;20632;-30
2021/05/01 10:16:13;;;;;;;1999.90;999.90;;;;;;;14.08;69.95;-18283.16;4929309;29;20210;-29
2021/05/01 10:19:03;;;;;;;1999.90;999.90;;;;;;;13.31;75.99;-18262.91;4923196;29;20241;-29
2021/05/01 10:21:51;;;;;;;1999.90;999.90;;;;;;;13.21;72.53;-18260.09;4923353;29;20201;-29
2021/05/01 10:24:41;;;;;;;1999.90;999.90;;;;;;;14.45;68.80;-18292.91;4923202;29;20213;-29
2021/05/01 10:27:27;;;;;;;1999.90;999.90;;;;;;;12.69;68.83;-18246.63;4923081;29;20284;-29
2021/05/01 10:30:28;;;;;;;1999.90;999.90;;;;;;;14.91;66.94;-18304.91;4922443;29;20273;-28
2021/05/01 10:33:29;;;;;;;1999.90;999.90;;;;;;;14.56;65.65;-18295.69;4922402;29;20213;-29
2021/05/01 10:36:20;;;;;;;1999.90;999.90;;;;;;;15.70;56.39;-18325.66;4921702;29;20221;-29
2021/05/01 10:39:09;;;;;;;1999.90;999.90;;;;;;;15.55;60.92;-18321.53;4922087;29;20307;-29
2021/05/01 10:41:58;;;;;;;1999.90;999.90;;;;;;;17.44;55.06;-18371.28;4922473;29;20651;-29
2021/05/01 10:44:55;;;;;;;1999.90;999.90;;;;;;;17.99;50.88;-18385.66;4922607;29;20524;-29
2021/05/01 10:48:08;;;;;;;1999.90;999.90;;;;;;;17.11;51.06;-18362.53;4922716;29;20216;-29
2021/05/01 10:51:08;;;;;;;1999.90;999.90;;;;;;;15.44;57.97;-18318.88;4924998;29;20627;-29
2021/05/01 10:54:10;;;;;;;1999.90;999.90;;;;;;;14.47;64.07;-18293.44;4923717;29;20205;-29
2021/05/01 10:56:57;;;;;;;1999.90;999.90;;;;;;;13.34;73.88;-18263.69;4921921;29;20224;-29
2021/05/01 10:59:57;;;;;;;1999.90;999.90;;;;;;;14.13;69.54;-18284.50;4922232;29;20205;-29
2021/05/01 11:02:44;;;;;;;1999.90;999.90;;;;;;;13.61;73.72;-18270.78;4921773;29;20476;-29
2021/05/01 11:05:32;;;;;;;1999.90;999.90;;;;;;;14.26;71.13;-18287.69;4921967;29;20542;-29
2021/05/01 11:08:33;;;;;;;1999.90;999.90;;;;;;;16.21;58.15;-18338.97;4921739;29;20644;-29
2021/05/01 11:11:29;;;;;;;1999.90;999.90;;;;;;;15.52;58.16;-18320.88;4921935;29;20217;-29
2021/05/01 11:14:25;;;;;;;1999.90;999.90;;;;;;;13.83;60.89;-18276.38;4921694;29;20307;-29
2021/05/01 11:17:13;;;;;;;1999.90;999.90;;;;;;;16.08;60.99;-18335.53;4921302;29;20217;-29
2021/05/01 11:20:04;;;;;;;1999.90;999.90;;;;;;;17.31;49.69;-18367.72;4922094;29;20592;-29
2021/05/01 11:22:56;;;;;;;1999.90;999.90;;;;;;;17.16;50.66;-18364.00;4921733;29;20223;-29
2021/05/01 11:25:42;;;;;;;1999.90;999.90;;;;;;;16.08;51.12;-18335.66;4921305;29;20214;-29
2021/05/01 11:28:29;;;;;;;1999.90;999.90;;;;;;;14.64;60.08;-18297.84;4921914;29;20297;-29
2021/05/01 11:31:17;;;;;;;1999.90;999.90;;;;;;;14.74;56.79;-18300.50;4920707;29;20321;-29
2021/05/01 11:34:06;;;;;;;1999.90;999.90;;;;;;;16.22;59.46;-18339.25;4921782;29;20261;-29
2021/05/01 11:36:56;;;;;;;1999.90;999.90;;;;;;;16.23;49.54;-18339.38;4923677;29;20205;-29
2021/05/01 11:39:42;;;;;;;1999.90;999.90;;;;;;;17.35;47.55;-18368.78;4931520;29;20211;-29
2021/05/01 11:42:29;;;;;;;1999.90;999.90;;;;;;;17.04;49.73;-18360.66;4940764;29;20332;-31
2021/05/01 11:45:25;;;;;;;1999.90;999.90;;;;;;;17.38;46.98;-18369.69;4940087;29;20205;-29
2021/05/01 11:48:20;;;;;;;1999.90;999.90;;;;;;;16.89;47.12;-18356.81;4941093;29;20205;-29
2021/05/01 11:51:11;;;;;;;1999.90;999.90;;;;;;;17.72;46.00;-18378.59;4940421;29;20213;-29
2021/05/01 11:54:19;;;;;;;1999.90;999.90;;;;;;;16.68;48.00;-18351.34;4940842;29;20213;-29
2021/05/01 11:57:15;;;;;;;1999.90;999.90;;;;;;;15.42;52.11;-18318.34;4943996;29;20226;-29
2021/05/01 12:00:01;;;;;;;1999.90;999.90;;;;;;;14.04;57.13;-18282.09;4941553;29;20430;-30
2021/05/01 12:02:49;;;;;;;1999.90;999.90;;;;;;;13.92;58.83;-18278.91;4926529;29;20208;-30
2021/05/01 12:05:39;;;;;;;1999.90;999.90;;;;;;;14.05;59.48;-18282.22;4923144;29;20218;-30
2021/05/01 12:08:25;;;;;;;1999.90;999.90;;;;;;;14.79;60.13;-18301.81;4921098;29;20245;-30
2021/05/01 12:11:19;;;;;;;1999.90;999.90;;;;;;;14.53;56.60;-18294.91;4921744;29;20209;-30
2021/05/01 12:14:10;;;;;;;1999.90;999.90;;;;;;;15.74;55.54;-18326.75;4921163;29;20305;-30
2021/05/01 12:17:09;;;;;;;1999.90;999.90;;;;;;;16.95;50.49;-18358.28;4922116;29;20206;-30
2021/05/01 12:20:09;;;;;;;1999.90;999.90;;;;;;;15.57;53.93;-18322.22;4921293;29;20209;-30